Seafrance Rodin — FOBQ — position and weather

sailwx.info

Track history (hours):
 
Tides and Currents Weather Stations Pressure Air Temp Water Temp Dewpoint Dewpoint Depression Visibility Wind Speed Wind Dir Waves Ship Positions

Seafrance Rodin

Operator: SeaFrance

Last reported at 2019-Jul-20 13:01 UTC. Time now 2019-Jul-20 13:30 UTC.
Position N 50°60' E 001°42'.

Length 185 m; draft 6 m.

Type: Ship (hazmat cat A). MMSI: 227022800.

Date/timePositionNaut miles runAvg speedWind from/ knotsBaromVisibWave heightAir tempDewpointWater temp
2019-Jul-20 13:01N 50°60' E 001°42'611.8
2019-Jul-20 12:30N 50°58' E 001°51'0 0.1
2019-Jul-20 12:01N 50°58' E 001°51'0 0.0
2019-Jul-20 11:30N 50°58' E 001°51'3 5.0
2019-Jul-20 11:00N 50°58' E 001°47'918.5
2019-Jul-20 10:30N 51°00' E 001°33'918.3
2019-Jul-20 10:01N 51°06' E 001°22'1 1.0
2019-Jul-20 08:40N 51°07' E 001°21'316.8
2019-Jul-20 08:30N 51°07' E 001°25'917.6
2019-Jul-20 08:00N 51°02' E 001°37'816.3
2019-Jul-20 07:30N 50°58' E 001°48'2 4.0
2019-Jul-20 07:01N 50°58' E 001°51'0 0.0
2019-Jul-20 06:30N 50°58' E 001°51'4 7.1
2019-Jul-20 06:00N 50°58' E 001°46'816.7
2019-Jul-20 05:31N 51°02' E 001°34'917.2
2019-Jul-20 05:00N 51°07' E 001°23'2 1.4
2019-Jul-20 03:49N 51°07' E 001°20'414.0
2019-Jul-20 03:30N 51°06' E 001°27'817.0
2019-Jul-20 03:00N 51°01' E 001°38'715.0
2019-Jul-20 02:31N 50°58' E 001°49'1 2.7
2019-Jul-20 02:00N 50°58' E 001°51'0 0.0
2019-Jul-20 01:31N 50°58' E 001°51'714.5
2019-Jul-20 01:00N 50°59' E 001°40'816.3
2019-Jul-20 00:30N 51°04' E 001°30'6 3.6
2019-Jul-19 22:48N 51°07' E 001°21'517.5
2019-Jul-19 22:31N 51°05' E 001°29'917.7
2019-Jul-19 22:01N 51°00' E 001°41'713.3
2019-Jul-19 21:30N 50°58' E 001°51'0 0.6
2019-Jul-19 21:00N 50°58' E 001°51'0 0.7
2019-Jul-19 20:30N 50°58' E 001°51'815.3
2019-Jul-19 20:01N 50°59' E 001°39'918.5
2019-Jul-19 19:31N 51°04' E 001°27'5 3.4
2019-Jul-19 17:58N 51°07' E 001°20'613.5
2019-Jul-19 17:31N 51°06' E 001°30'917.0
2019-Jul-19 17:00N 51°00' E 001°40'714.2
2019-Jul-19 16:30N 50°58' E 001°51'0 0.2
2019-Jul-19 16:00N 50°58' E 001°51'1 1.2
2019-Jul-19 15:31N 50°58' E 001°50'1019.3
2019-Jul-19 15:00N 50°59' E 001°35'1019.2
2019-Jul-19 14:31N 51°06' E 001°24'3 2.2
2019-Jul-19 13:16N 51°07' E 001°20'416.7
2019-Jul-19 13:01N 51°07' E 001°27'1020.2
2019-Jul-19 12:30N 51°01' E 001°40'714.6
2019-Jul-19 12:00N 50°58' E 001°51'0 0.3
2019-Jul-19 11:30N 50°58' E 001°51'1 1.5
2019-Jul-19 11:00N 50°58' E 001°50'816.0
2019-Jul-19 10:30N 50°59' E 001°37'917.9
2019-Jul-19 10:01N 51°04' E 001°26'4 3.2
2019-Jul-19 08:39N 51°07' E 001°21'217.3
2019-Jul-19 08:31N 51°07' E 001°24'917.2
2019-Jul-19 08:00N 51°02' E 001°36'817.0
2019-Jul-19 07:30N 50°58' E 001°48'2 4.3
2019-Jul-19 07:01N 50°58' E 001°51'0 0.0
2019-Jul-19 06:31N 50°58' E 001°51'3 6.2
2019-Jul-19 06:00N 50°58' E 001°46'815.5
2019-Jul-19 05:30N 51°01' E 001°35'917.1
2019-Jul-19 05:00N 51°06' E 001°24'3 5.5
2019-Jul-19 04:30N 51°07' E 001°20'0 0.0
2019-Jul-19 03:55N 51°07' E 001°20'410.6
2019-Jul-19 03:31N 51°06' E 001°27'816.1
2019-Jul-19 03:00N 51°02' E 001°38'815.2
2019-Jul-19 02:31N 50°58' E 001°48'2 3.5
2019-Jul-19 02:00N 50°58' E 001°51'0 0.0
2019-Jul-19 01:30N 50°58' E 001°51'3 5.2
2019-Jul-19 01:01N 50°58' E 001°47'816.9
2019-Jul-19 00:30N 51°00' E 001°34'816.1
2019-Jul-19 00:00N 51°05' E 001°24'3 2.9
2019-Jul-18 22:58N 51°07' E 001°20'612.0
2019-Jul-18 22:31N 51°06' E 001°29'815.0
2019-Jul-18 22:01N 51°02' E 001°39'714.0
2019-Jul-18 21:30N 50°58' E 001°48'2 3.4
2019-Jul-18 21:00N 50°58' E 001°51'0 1.0
2019-Jul-18 20:30N 50°58' E 001°51'713.5
2019-Jul-18 20:00N 50°59' E 001°40'815.8
2019-Jul-18 19:30N 51°03' E 001°30'7 4.6
2019-Jul-18 18:00N 51°07' E 001°21'918.4
2019-Jul-18 17:30N 51°04' E 001°34'1019.3
2019-Jul-18 17:00N 50°58' E 001°46'3 6.1
2019-Jul-18 16:30N 50°58' E 001°51'0 0.0
2019-Jul-18 16:00N 50°58' E 001°51'1 2.4
2019-Jul-18 15:30N 50°58' E 001°49'917.1
2019-Jul-18 15:00N 51°01' E 001°36'918.3
2019-Jul-18 14:30N 51°06' E 001°24'3 2.4
2019-Jul-18 13:17N 51°07' E 001°20'415.6
2019-Jul-18 13:00N 51°07' E 001°27'1019.1
2019-Jul-18 12:30N 51°01' E 001°40'815.4
2019-Jul-18 12:00N 50°58' E 001°51'0 0.3
2019-Jul-18 11:30N 50°58' E 001°51'0 0.3
2019-Jul-18 11:01N 50°58' E 001°51'918.0
2019-Jul-18 10:30N 50°60' E 001°37'918.9
2019-Jul-18 10:01N 51°05' E 001°25'3 2.4
2019-Jul-18 08:39N 51°07' E 001°21'217.5
2019-Jul-18 08:31N 51°07' E 001°24'917.9
2019-Jul-18 08:01N 51°02' E 001°36'917.0
2019-Jul-18 07:31N 50°58' E 001°48'2 3.6
2019-Jul-18 07:00N 50°58' E 001°51'0 0.0
2019-Jul-18 06:30N 50°58' E 001°51'3 5.3
2019-Jul-18 06:00N 50°58' E 001°47'815.5
2019-Jul-18 05:31N 51°00' E 001°35'917.2
2019-Jul-18 05:01N 51°05' E 001°24'3 2.4
2019-Jul-18 03:47N 51°07' E 001°21'415.4
2019-Jul-18 03:30N 51°07' E 001°27'816.0
2019-Jul-18 03:00N 51°02' E 001°38'815.1
2019-Jul-18 02:30N 50°58' E 001°48'2 3.6
2019-Jul-18 02:00N 50°58' E 001°51'0 0.0
2019-Jul-18 01:30N 50°58' E 001°51'0 0.7
2019-Jul-18 01:01N 50°58' E 001°51'816.6
2019-Jul-18 00:31N 50°60' E 001°38'816.4
2019-Jul-18 00:01N 51°05' E 001°28'510.5
2019-Jul-17 23:30N 51°07' E 001°20'0 0.0
2019-Jul-17 22:59N 51°07' E 001°20'3 5.8
2019-Jul-17 22:30N 51°07' E 001°25'816.5
2019-Jul-17 22:00N 51°02' E 001°36'816.3
2019-Jul-17 21:30N 50°58' E 001°47'3 5.8
2019-Jul-17 21:00N 50°58' E 001°51'0 0.0
2019-Jul-17 20:30N 50°58' E 001°51'4 8.3
2019-Jul-17 20:01N 50°58' E 001°45'917.3
2019-Jul-17 19:30N 51°02' E 001°33'917.5
2019-Jul-17 19:00N 51°07' E 001°21'1 1.0
2019-Jul-17 18:29N 51°07' E 001°20'0 0.2
2019-Jul-17 17:55N 51°07' E 001°20'716.7
2019-Jul-17 17:30N 51°05' E 001°30'917.8
2019-Jul-17 17:01N 50°59' E 001°42'612.4
2019-Jul-17 16:31N 50°58' E 001°51'0 0.0
2019-Jul-17 16:00N 50°58' E 001°51'1 1.5
2019-Jul-17 15:30N 50°58' E 001°50'917.8
2019-Jul-17 15:00N 50°60' E 001°36'1020.2
2019-Jul-17 14:31N 51°06' E 001°24'3 5.3
2019-Jul-17 14:00N 51°07' E 001°20'0 0.0
2019-Jul-17 13:30N 51°07' E 001°20'4 8.9
2019-Jul-17 13:01N 51°06' E 001°27'1020.4
2019-Jul-17 12:31N 51°00' E 001°40'714.6
2019-Jul-17 12:01N 50°58' E 001°51'0 0.1
2019-Jul-17 11:30N 50°58' E 001°51'1 1.8
2019-Jul-17 11:00N 50°58' E 001°50'815.7
2019-Jul-17 10:31N 50°60' E 001°38'918.1
2019-Jul-17 10:01N 51°05' E 001°26'4 4.3
2019-Jul-17 08:58N 51°07' E 001°20'3 5.8
2019-Jul-17 08:30N 51°07' E 001°24'917.3
2019-Jul-17 08:00N 51°02' E 001°35'917.7
2019-Jul-17 07:30N 50°58' E 001°48'2 3.6
2019-Jul-17 07:00N 50°58' E 001°51'0 0.0
2019-Jul-17 06:30N 50°58' E 001°51'3 6.5
2019-Jul-17 06:00N 50°58' E 001°46'815.2
2019-Jul-17 05:31N 50°59' E 001°34'815.7
2019-Jul-17 05:00N 51°05' E 001°25'4 8.3
2019-Jul-17 04:30N 51°07' E 001°20'0 0.2
2019-Jul-17 03:54N 51°07' E 001°20'614.4
2019-Jul-17 03:31N 51°07' E 001°29'815.3
2019-Jul-17 03:01N 51°02' E 001°39'714.8
2019-Jul-17 02:30N 50°58' E 001°49'1 2.5
2019-Jul-17 02:01N 50°58' E 001°51'0 0.0
2019-Jul-17 01:30N 50°58' E 001°51'1 1.8
2019-Jul-17 01:00N 50°58' E 001°50'917.1
2019-Jul-17 00:30N 50°59' E 001°36'815.9
2019-Jul-17 00:01N 51°04' E 001°26'5 7.8
2019-Jul-16 23:22N 51°07' E 001°20'0 0.0
2019-Jul-16 22:58N 51°07' E 001°20'3 7.2
2019-Jul-16 22:31N 51°06' E 001°25'918.0
2019-Jul-16 22:00N 51°01' E 001°37'816.1
2019-Jul-16 21:30N 50°58' E 001°49'1 3.0
2019-Jul-16 21:01N 50°58' E 001°51'0 0.0
2019-Jul-16 20:30N 50°58' E 001°51'612.6
2019-Jul-16 20:00N 50°58' E 001°41'815.7
2019-Jul-16 19:30N 51°02' E 001°30'816.3
2019-Jul-16 19:00N 51°07' E 001°21'0 0.3
2019-Jul-16 18:08N 51°07' E 001°20'0 1.0
2019-Jul-16 17:59N 51°07' E 001°20'715.5
2019-Jul-16 17:31N 51°05' E 001°31'917.9
2019-Jul-16 17:00N 50°59' E 001°42'611.6
2019-Jul-16 16:31N 50°58' E 001°51'0 0.0
2019-Jul-16 16:00N 50°58' E 001°51'1 1.0
2019-Jul-16 15:30N 50°58' E 001°50'815.9
2019-Jul-16 15:00N 50°60' E 001°38'918.6
2019-Jul-16 14:30N 51°05' E 001°26'3 2.2
2019-Jul-16 13:06N 51°07' E 001°22'218.5
2019-Jul-16 13:00N 51°07' E 001°25'1020.4
2019-Jul-16 12:30N 51°01' E 001°38'816.7
2019-Jul-16 12:00N 50°58' E 001°51'0 0.4
2019-Jul-16 11:30N 50°58' E 001°51'0 0.7
2019-Jul-16 11:01N 50°58' E 001°51'918.2
2019-Jul-16 10:30N 50°60' E 001°36'1019.9
2019-Jul-16 10:00N 51°06' E 001°24'3 1.9
2019-Jul-16 08:41N 51°07' E 001°20'214.8
2019-Jul-16 08:30N 51°07' E 001°24'917.5
2019-Jul-16 08:00N 51°02' E 001°36'917.2
2019-Jul-16 07:30N 50°58' E 001°48'2 3.9
2019-Jul-16 07:00N 50°58' E 001°51'0 0.0
2019-Jul-16 06:30N 50°58' E 001°51'4 7.6
2019-Jul-16 06:01N 50°58' E 001°45'714.6
2019-Jul-16 05:30N 51°01' E 001°35'815.5
2019-Jul-16 05:00N 51°05' E 001°25'3 3.0
2019-Jul-16 03:51N 51°07' E 001°20'412.1
2019-Jul-16 03:30N 51°06' E 001°27'817.0
2019-Jul-16 03:01N 51°01' E 001°38'815.4
2019-Jul-16 02:30N 50°58' E 001°49'1 2.9
2019-Jul-16 02:00N 50°58' E 001°51'0 0.0
2019-Jul-16 01:30N 50°58' E 001°51'1 2.3
2019-Jul-16 01:00N 50°58' E 001°49'815.4
2019-Jul-16 00:30N 50°60' E 001°37'815.8
2019-Jul-16 00:00N 51°04' E 001°27'5 4.4
2019-Jul-15 22:48N 51°07' E 001°20'310.1
2019-Jul-15 22:31N 51°07' E 001°25'917.5
2019-Jul-15 22:00N 51°02' E 001°37'815.9
2019-Jul-15 21:30N 50°58' E 001°48'2 4.4
2019-Jul-15 21:00N 50°58' E 001°51'0 0.0
2019-Jul-15 20:30N 50°58' E 001°51'3 6.9
2019-Jul-15 20:00N 50°58' E 001°46'1019.1
2019-Jul-15 19:31N 51°01' E 001°32'918.5
2019-Jul-15 19:00N 51°07' E 001°20'0 0.1
2019-Jul-15 17:53N 51°07' E 001°20'616.7
2019-Jul-15 17:30N 51°05' E 001°30'1019.0
2019-Jul-15 17:00N 50°59' E 001°42'612.0
2019-Jul-15 16:30N 50°58' E 001°51'0 0.0
2019-Jul-15 16:00N 50°58' E 001°51'2 5.0
2019-Jul-15 15:30N 50°58' E 001°47'714.8
2019-Jul-15 15:00N 51°01' E 001°36'816.0
2019-Jul-15 14:30N 51°05' E 001°26'3 2.5
2019-Jul-15 13:08N 51°07' E 001°22'218.0
2019-Jul-15 13:00N 51°07' E 001°25'1020.2
2019-Jul-15 12:30N 51°01' E 001°37'917.5
2019-Jul-15 12:00N 50°58' E 001°51'0 0.7
2019-Jul-15 11:30N 50°58' E 001°51'0 0.2
2019-Jul-15 11:00N 50°58' E 001°51'715.0
2019-Jul-15 10:31N 50°59' E 001°39'917.7
2019-Jul-15 10:00N 51°02' E 001°26'6 4.7
2019-Jul-15 08:39N 51°07' E 001°20'2 9.6
2019-Jul-15 08:28N 51°07' E 001°23'818.3
2019-Jul-15 08:01N 51°02' E 001°34'918.6
2019-Jul-15 07:31N 50°58' E 001°47'3 5.1
2019-Jul-15 07:00N 50°58' E 001°51'0 0.0
2019-Jul-15 06:30N 50°58' E 001°51'4 7.2
2019-Jul-15 06:00N 50°58' E 001°45'815.5
2019-Jul-15 05:30N 51°01' E 001°34'815.3
2019-Jul-15 05:01N 51°05' E 001°24'2 1.7
2019-Jul-15 03:43N 51°07' E 001°22'418.8
2019-Jul-15 03:31N 51°06' E 001°28'917.8
2019-Jul-15 03:01N 51°01' E 001°40'714.9
2019-Jul-15 02:30N 50°58' E 001°51'0 0.7
2019-Jul-15 02:00N 50°58' E 001°51'0 0.0
2019-Jul-15 01:30N 50°58' E 001°51'3 6.7
2019-Jul-15 01:00N 50°58' E 001°46'816.4
2019-Jul-15 00:30N 51°00' E 001°34'816.3
2019-Jul-15 00:01N 51°06' E 001°24'3 2.0
2019-Jul-14 22:41N 51°07' E 001°21'214.2
2019-Jul-14 22:30N 51°07' E 001°24'815.7
2019-Jul-14 22:00N 51°03' E 001°35'816.7
2019-Jul-14 21:31N 50°58' E 001°46'3 6.6
2019-Jul-14 21:00N 50°58' E 001°51'0 0.0
2019-Jul-14 20:30N 50°58' E 001°51'4 7.3
2019-Jul-14 20:00N 50°58' E 001°45'816.2
2019-Jul-14 19:30N 51°01' E 001°33'816.4
2019-Jul-14 19:00N 51°06' E 001°23'2 2.1
2019-Jul-14 17:54N 51°07' E 001°20'716.6
2019-Jul-14 17:31N 51°06' E 001°31'1020.6
2019-Jul-14 17:01N 50°59' E 001°43'510.8
2019-Jul-14 16:30N 50°58' E 001°51'0 0.0
2019-Jul-14 16:00N 50°58' E 001°51'2 4.1
2019-Jul-14 15:30N 50°58' E 001°48'713.8
2019-Jul-14 15:00N 50°60' E 001°37'816.5
2019-Jul-14 14:30N 51°05' E 001°27'5 3.9
2019-Jul-14 13:17N 51°07' E 001°20'413.8
2019-Jul-14 13:00N 51°07' E 001°26'1020.6
2019-Jul-14 12:30N 51°00' E 001°39'815.7
2019-Jul-14 12:00N 50°58' E 001°51'0 0.3
2019-Jul-14 11:22N 50°58' E 001°52'0 0.0
2019-Jul-14 10:46N 50°58' E 001°52'0 0.0
2019-Jul-14 10:22N 50°58' E 001°52'0 0.0
2019-Jul-14 07:07N 50°58' E 001°52'0 0.0
2019-Jul-14 06:04N 50°58' E 001°52'0 0.0
2019-Jul-14 04:58N 50°58' E 001°52'0 0.0
2019-Jul-14 03:25N 50°58' E 001°52'0 0.0
2019-Jul-14 02:52N 50°58' E 001°52'0 0.0
2019-Jul-14 02:29N 50°58' E 001°52'0 0.0
2019-Jul-14 02:00N 50°58' E 001°52'0 0.0
2019-Jul-14 01:27N 50°58' E 001°52'1 1.7
2019-Jul-14 01:00N 50°58' E 001°51'917.4
2019-Jul-14 00:30N 50°59' E 001°37'1020.1
2019-Jul-14 00:01N 51°05' E 001°24'3 2.4
2019-Jul-13 22:41N 51°07' E 001°20'213.6
2019-Jul-13 22:31N 51°07' E 001°24'1020.5
2019-Jul-13 22:01N 51°02' E 001°38'917.2
2019-Jul-13 21:30N 50°58' E 001°51'0 0.5
2019-Jul-13 21:00N 50°58' E 001°51'0 0.0
2019-Jul-13 20:30N 50°58' E 001°51'3 5.9
2019-Jul-13 20:00N 50°58' E 001°46'1019.5
2019-Jul-13 19:30N 51°01' E 001°32'9 5.5
2019-Jul-13 17:49N 51°07' E 001°21'617.6
2019-Jul-13 17:30N 51°05' E 001°29'918.3
2019-Jul-13 17:00N 51°00' E 001°41'713.7
2019-Jul-13 16:30N 50°58' E 001°51'0 0.2
2019-Jul-13 16:00N 50°58' E 001°51'0 0.4
2019-Jul-13 15:30N 50°58' E 001°51'714.5
2019-Jul-13 15:01N 50°59' E 001°40'1019.4
2019-Jul-13 14:30N 51°05' E 001°27'5 5.5
2019-Jul-13 13:33N 51°07' E 001°20'0 0.4
2019-Jul-13 13:14N 51°07' E 001°20'314.7
2019-Jul-13 13:00N 51°06' E 001°25'1019.9
2019-Jul-13 12:30N 51°01' E 001°38'816.7
2019-Jul-13 12:01N 50°58' E 001°51'0 0.3
2019-Jul-13 11:31N 50°58' E 001°51'0 0.1
2019-Jul-13 11:00N 50°58' E 001°51'815.6
2019-Jul-13 10:30N 50°59' E 001°39'918.7
2019-Jul-13 10:00N 51°04' E 001°27'5 3.9
2019-Jul-13 08:42N 51°07' E 001°20'211.6
2019-Jul-13 08:30N 51°07' E 001°24'918.0
2019-Jul-13 08:00N 51°01' E 001°35'917.8
2019-Jul-13 07:30N 50°58' E 001°48'2 3.8
2019-Jul-13 07:01N 50°58' E 001°51'0 0.0
2019-Jul-13 06:31N 50°58' E 001°51'4 7.2
2019-Jul-13 06:00N 50°58' E 001°46'815.1
2019-Jul-13 05:30N 51°01' E 001°35'815.4
2019-Jul-13 05:01N 51°05' E 001°25'3 2.6
2019-Jul-13 03:47N 51°07' E 001°21'416.0
2019-Jul-13 03:30N 51°06' E 001°27'816.0
2019-Jul-13 03:01N 51°02' E 001°38'714.6
2019-Jul-13 02:31N 50°58' E 001°48'2 3.4
2019-Jul-13 02:00N 50°58' E 001°51'0 0.0
2019-Jul-13 01:30N 50°58' E 001°51'2 3.3
2019-Jul-13 01:00N 50°58' E 001°48'815.5
2019-Jul-13 00:30N 50°59' E 001°36'816.4
2019-Jul-13 00:00N 51°03' E 001°25'5 4.1
2019-Jul-12 22:47N 51°07' E 001°20'412.9
2019-Jul-12 22:31N 51°07' E 001°26'815.9
2019-Jul-12 22:01N 51°02' E 001°36'815.7
2019-Jul-12 21:31N 50°58' E 001°47'3 5.1
2019-Jul-12 21:00N 50°58' E 001°51'0 0.0
2019-Jul-12 20:30N 50°58' E 001°51'4 7.1
2019-Jul-12 20:00N 50°58' E 001°45'816.4
2019-Jul-12 19:30N 51°01' E 001°34'816.2
2019-Jul-12 19:00N 51°06' E 001°23'2 1.9
2019-Jul-12 17:52N 51°07' E 001°20'514.1
2019-Jul-12 17:30N 51°05' E 001°28'917.5
2019-Jul-12 17:00N 51°00' E 001°39'815.5
2019-Jul-12 16:31N 50°58' E 001°51'0 0.3
2019-Jul-12 16:00N 50°58' E 001°51'0 0.2
2019-Jul-12 15:30N 50°58' E 001°51'815.3
2019-Jul-12 15:00N 50°59' E 001°39'1020.0
2019-Jul-12 14:30N 51°05' E 001°26'4 5.9
2019-Jul-12 13:45N 51°07' E 001°20'0 0.0
2019-Jul-12 13:21N 51°07' E 001°20'410.6
2019-Jul-12 13:00N 51°06' E 001°26'918.6
2019-Jul-12 12:30N 51°01' E 001°38'917.5
2019-Jul-12 12:00N 50°58' E 001°51'0 0.4
2019-Jul-12 11:30N 50°58' E 001°51'0 0.8
2019-Jul-12 11:01N 50°58' E 001°51'714.7
2019-Jul-12 10:30N 50°59' E 001°39'919.0
2019-Jul-12 10:01N 51°05' E 001°27'5 3.5
2019-Jul-12 08:36N 51°07' E 001°20'1 9.0
2019-Jul-12 08:28N 51°07' E 001°22'919.4
2019-Jul-12 08:00N 51°02' E 001°34'918.6
2019-Jul-12 07:30N 50°58' E 001°47'2 4.9
2019-Jul-12 07:00N 50°58' E 001°51'0 0.0
2019-Jul-12 06:30N 50°58' E 001°51'1 2.0
2019-Jul-12 06:00N 50°58' E 001°49'917.9
2019-Jul-12 05:30N 50°60' E 001°35'918.0
2019-Jul-12 05:00N 51°05' E 001°24'3 3.8
2019-Jul-12 04:09N 51°07' E 001°20'0 0.4
2019-Jul-12 03:57N 51°07' E 001°20'511.4
2019-Jul-12 03:31N 51°05' E 001°28'816.9
2019-Jul-12 03:00N 51°01' E 001°39'8 8.3
2019-Jul-12 02:00N 50°58' E 001°51'0 0.0
2019-Jul-12 01:30N 50°58' E 001°51'3 6.2
2019-Jul-12 01:01N 50°58' E 001°46'815.1
2019-Jul-12 00:30N 50°58' E 001°34'815.8
2019-Jul-12 00:00N 51°03' E 001°25'5 3.7
2019-Jul-11 22:36N 51°07' E 001°20'114.1
2019-Jul-11 22:30N 51°07' E 001°23'917.1
2019-Jul-11 22:00N 51°03' E 001°35'917.5
2019-Jul-11 21:30N 50°58' E 001°46'3 6.7
2019-Jul-11 21:00N 50°58' E 001°51'0 0.0
2019-Jul-11 20:30N 50°58' E 001°51'612.7
2019-Jul-11 20:01N 50°58' E 001°41'1019.2
2019-Jul-11 19:31N 51°04' E 001°29'6 6.1
2019-Jul-11 18:27N 51°07' E 001°20'1 2.8
2019-Jul-11 18:00N 51°07' E 001°22'918.0
2019-Jul-11 17:31N 51°03' E 001°35'917.8
2019-Jul-11 17:00N 50°58' E 001°46'3 6.4
2019-Jul-11 16:31N 50°58' E 001°51'0 0.0
2019-Jul-11 16:00N 50°58' E 001°51'4 7.3
2019-Jul-11 15:30N 50°58' E 001°45'918.0
2019-Jul-11 15:00N 51°01' E 001°32'917.8
2019-Jul-11 14:29N 51°07' E 001°21'0 0.8
2019-Jul-11 13:51N 51°07' E 001°20'0 0.0
2019-Jul-11 13:28N 51°07' E 001°20'510.1
2019-Jul-11 13:01N 51°06' E 001°27'917.4
2019-Jul-11 12:31N 51°00' E 001°38'816.8
2019-Jul-11 12:00N 50°58' E 001°51'0 0.9
2019-Jul-11 11:30N 50°58' E 001°51'0 0.0
2019-Jul-11 11:00N 50°58' E 001°51'4 8.2
2019-Jul-11 10:31N 50°58' E 001°45'1019.9
2019-Jul-11 10:01N 51°03' E 001°31'8 5.9
2019-Jul-11 08:38N 51°07' E 001°20'1 9.5
2019-Jul-11 08:30N 51°07' E 001°22'918.3
2019-Jul-11 08:00N 51°03' E 001°35'918.2
2019-Jul-11 07:30N 50°58' E 001°47'3 5.3
2019-Jul-11 07:01N 50°58' E 001°51'0 0.0
2019-Jul-11 06:31N 50°58' E 001°51'3 6.0
2019-Jul-11 06:00N 50°58' E 001°46'917.5
2019-Jul-11 05:30N 51°01' E 001°33'917.5
2019-Jul-11 05:00N 51°06' E 001°22'2 1.3
2019-Jul-11 03:48N 51°07' E 001°20'515.3
2019-Jul-11 03:31N 51°06' E 001°28'917.8
2019-Jul-11 03:01N 51°01' E 001°39'815.9
2019-Jul-11 02:30N 50°58' E 001°51'0 0.5
2019-Jul-11 02:00N 50°58' E 001°51'0 0.0
2019-Jul-11 01:30N 50°58' E 001°51'2 5.0
2019-Jul-11 01:01N 50°58' E 001°47'815.5
2019-Jul-11 00:31N 50°59' E 001°35'816.8
2019-Jul-11 00:01N 51°06' E 001°26'4 5.6
2019-Jul-10 23:15N 51°07' E 001°20'0 0.0
2019-Jul-10 23:00N 51°07' E 001°20'4 7.2
2019-Jul-10 22:31N 51°07' E 001°26'816.4
2019-Jul-10 22:00N 51°02' E 001°37'815.4
2019-Jul-10 21:30N 50°58' E 001°47'3 5.0
2019-Jul-10 21:00N 50°58' E 001°51'0 0.0
2019-Jul-10 20:30N 50°58' E 001°51'714.0
2019-Jul-10 20:01N 50°59' E 001°40'1020.6
2019-Jul-10 19:30N 51°05' E 001°27'5 3.6
2019-Jul-10 18:12N 51°07' E 001°20'2 8.7
2019-Jul-10 18:00N 51°07' E 001°23'816.5
2019-Jul-10 17:31N 51°03' E 001°34'917.5
2019-Jul-10 17:01N 50°58' E 001°45'4 7.3
2019-Jul-10 16:30N 50°58' E 001°51'0 0.0
2019-Jul-10 16:00N 50°58' E 001°51'1 2.1
2019-Jul-10 15:31N 50°58' E 001°50'917.4
2019-Jul-10 15:00N 50°59' E 001°36'1019.5
2019-Jul-10 14:30N 51°06' E 001°25'3 5.2
2019-Jul-10 13:51N 51°07' E 001°20'0 0.0
2019-Jul-10 13:30N 51°07' E 001°20'4 8.0
2019-Jul-10 13:01N 51°07' E 001°26'  
Track history (hours):
 
Tides and Currents Weather Stations Pressure Air Temp Water Temp Dewpoint Dewpoint Depression Visibility Wind Speed Wind Dir Waves Ship Positions

Seafrance Rodin

Operator: SeaFrance

Last reported at 2019-Jul-20 13:01 UTC. Time now 2019-Jul-20 13:30 UTC.
Position N 50°60' E 001°42'.

Length 185 m; draft 6 m.

Type: Ship (hazmat cat A). MMSI: 227022800.

Date/timePositionNaut miles runAvg speedWind from/ knotsBaromVisibWave heightAir tempDewpointWater temp
2019-Jul-20 13:01N 50°60' E 001°42'611.8
2019-Jul-20 12:30N 50°58' E 001°51'0 0.1
2019-Jul-20 12:01N 50°58' E 001°51'0 0.0
2019-Jul-20 11:30N 50°58' E 001°51'3 5.0
2019-Jul-20 11:00N 50°58' E 001°47'918.5
2019-Jul-20 10:30N 51°00' E 001°33'918.3
2019-Jul-20 10:01N 51°06' E 001°22'1 1.0
2019-Jul-20 08:40N 51°07' E 001°21'316.8
2019-Jul-20 08:30N 51°07' E 001°25'917.6
2019-Jul-20 08:00N 51°02' E 001°37'816.3
2019-Jul-20 07:30N 50°58' E 001°48'2 4.0
2019-Jul-20 07:01N 50°58' E 001°51'0 0.0
2019-Jul-20 06:30N 50°58' E 001°51'4 7.1
2019-Jul-20 06:00N 50°58' E 001°46'816.7
2019-Jul-20 05:31N 51°02' E 001°34'917.2
2019-Jul-20 05:00N 51°07' E 001°23'2 1.4
2019-Jul-20 03:49N 51°07' E 001°20'414.0
2019-Jul-20 03:30N 51°06' E 001°27'817.0
2019-Jul-20 03:00N 51°01' E 001°38'715.0
2019-Jul-20 02:31N 50°58' E 001°49'1 2.7
2019-Jul-20 02:00N 50°58' E 001°51'0 0.0
2019-Jul-20 01:31N 50°58' E 001°51'714.5
2019-Jul-20 01:00N 50°59' E 001°40'816.3
2019-Jul-20 00:30N 51°04' E 001°30'6 3.6
2019-Jul-19 22:48N 51°07' E 001°21'517.5
2019-Jul-19 22:31N 51°05' E 001°29'917.7
2019-Jul-19 22:01N 51°00' E 001°41'713.3
2019-Jul-19 21:30N 50°58' E 001°51'0 0.6
2019-Jul-19 21:00N 50°58' E 001°51'0 0.7
2019-Jul-19 20:30N 50°58' E 001°51'815.3
2019-Jul-19 20:01N 50°59' E 001°39'918.5
2019-Jul-19 19:31N 51°04' E 001°27'5 3.4
2019-Jul-19 17:58N 51°07' E 001°20'613.5
2019-Jul-19 17:31N 51°06' E 001°30'917.0
2019-Jul-19 17:00N 51°00' E 001°40'714.2
2019-Jul-19 16:30N 50°58' E 001°51'0 0.2
2019-Jul-19 16:00N 50°58' E 001°51'1 1.2
2019-Jul-19 15:31N 50°58' E 001°50'1019.3
2019-Jul-19 15:00N 50°59' E 001°35'1019.2
2019-Jul-19 14:31N 51°06' E 001°24'3 2.2
2019-Jul-19 13:16N 51°07' E 001°20'416.7
2019-Jul-19 13:01N 51°07' E 001°27'1020.2
2019-Jul-19 12:30N 51°01' E 001°40'714.6
2019-Jul-19 12:00N 50°58' E 001°51'0 0.3
2019-Jul-19 11:30N 50°58' E 001°51'1 1.5
2019-Jul-19 11:00N 50°58' E 001°50'816.0
2019-Jul-19 10:30N 50°59' E 001°37'917.9
2019-Jul-19 10:01N 51°04' E 001°26'4 3.2
2019-Jul-19 08:39N 51°07' E 001°21'217.3
2019-Jul-19 08:31N 51°07' E 001°24'917.2
2019-Jul-19 08:00N 51°02' E 001°36'817.0
2019-Jul-19 07:30N 50°58' E 001°48'2 4.3
2019-Jul-19 07:01N 50°58' E 001°51'0 0.0
2019-Jul-19 06:31N 50°58' E 001°51'3 6.2
2019-Jul-19 06:00N 50°58' E 001°46'815.5
2019-Jul-19 05:30N 51°01' E 001°35'917.1
2019-Jul-19 05:00N 51°06' E 001°24'3 5.5
2019-Jul-19 04:30N 51°07' E 001°20'0 0.0
2019-Jul-19 03:55N 51°07' E 001°20'410.6
2019-Jul-19 03:31N 51°06' E 001°27'816.1
2019-Jul-19 03:00N 51°02' E 001°38'815.2
2019-Jul-19 02:31N 50°58' E 001°48'2 3.5
2019-Jul-19 02:00N 50°58' E 001°51'0 0.0
2019-Jul-19 01:30N 50°58' E 001°51'3 5.2
2019-Jul-19 01:01N 50°58' E 001°47'816.9
2019-Jul-19 00:30N 51°00' E 001°34'816.1
2019-Jul-19 00:00N 51°05' E 001°24'3 2.9
2019-Jul-18 22:58N 51°07' E 001°20'612.0
2019-Jul-18 22:31N 51°06' E 001°29'815.0
2019-Jul-18 22:01N 51°02' E 001°39'714.0
2019-Jul-18 21:30N 50°58' E 001°48'2 3.4
2019-Jul-18 21:00N 50°58' E 001°51'0 1.0
2019-Jul-18 20:30N 50°58' E 001°51'713.5
2019-Jul-18 20:00N 50°59' E 001°40'815.8
2019-Jul-18 19:30N 51°03' E 001°30'7 4.6
2019-Jul-18 18:00N 51°07' E 001°21'918.4
2019-Jul-18 17:30N 51°04' E 001°34'1019.3
2019-Jul-18 17:00N 50°58' E 001°46'3 6.1
2019-Jul-18 16:30N 50°58' E 001°51'0 0.0
2019-Jul-18 16:00N 50°58' E 001°51'1 2.4
2019-Jul-18 15:30N 50°58' E 001°49'917.1
2019-Jul-18 15:00N 51°01' E 001°36'918.3
2019-Jul-18 14:30N 51°06' E 001°24'3 2.4
2019-Jul-18 13:17N 51°07' E 001°20'415.6
2019-Jul-18 13:00N 51°07' E 001°27'1019.1
2019-Jul-18 12:30N 51°01' E 001°40'815.4
2019-Jul-18 12:00N 50°58' E 001°51'0 0.3
2019-Jul-18 11:30N 50°58' E 001°51'0 0.3
2019-Jul-18 11:01N 50°58' E 001°51'918.0
2019-Jul-18 10:30N 50°60' E 001°37'918.9
2019-Jul-18 10:01N 51°05' E 001°25'3 2.4
2019-Jul-18 08:39N 51°07' E 001°21'217.5
2019-Jul-18 08:31N 51°07' E 001°24'917.9
2019-Jul-18 08:01N 51°02' E 001°36'917.0
2019-Jul-18 07:31N 50°58' E 001°48'2 3.6
2019-Jul-18 07:00N 50°58' E 001°51'0 0.0
2019-Jul-18 06:30N 50°58' E 001°51'3 5.3
2019-Jul-18 06:00N 50°58' E 001°47'815.5
2019-Jul-18 05:31N 51°00' E 001°35'917.2
2019-Jul-18 05:01N 51°05' E 001°24'3 2.4
2019-Jul-18 03:47N 51°07' E 001°21'415.4
2019-Jul-18 03:30N 51°07' E 001°27'816.0
2019-Jul-18 03:00N 51°02' E 001°38'815.1
2019-Jul-18 02:30N 50°58' E 001°48'2 3.6
2019-Jul-18 02:00N 50°58' E 001°51'0 0.0
2019-Jul-18 01:30N 50°58' E 001°51'0 0.7
2019-Jul-18 01:01N 50°58' E 001°51'816.6
2019-Jul-18 00:31N 50°60' E 001°38'816.4
2019-Jul-18 00:01N 51°05' E 001°28'510.5
2019-Jul-17 23:30N 51°07' E 001°20'0 0.0
2019-Jul-17 22:59N 51°07' E 001°20'3 5.8
2019-Jul-17 22:30N 51°07' E 001°25'816.5
2019-Jul-17 22:00N 51°02' E 001°36'816.3
2019-Jul-17 21:30N 50°58' E 001°47'3 5.8
2019-Jul-17 21:00N 50°58' E 001°51'0 0.0
2019-Jul-17 20:30N 50°58' E 001°51'4 8.3
2019-Jul-17 20:01N 50°58' E 001°45'917.3
2019-Jul-17 19:30N 51°02' E 001°33'917.5
2019-Jul-17 19:00N 51°07' E 001°21'1 1.0
2019-Jul-17 18:29N 51°07' E 001°20'0 0.2
2019-Jul-17 17:55N 51°07' E 001°20'716.7
2019-Jul-17 17:30N 51°05' E 001°30'917.8
2019-Jul-17 17:01N 50°59' E 001°42'612.4
2019-Jul-17 16:31N 50°58' E 001°51'0 0.0
2019-Jul-17 16:00N 50°58' E 001°51'1 1.5
2019-Jul-17 15:30N 50°58' E 001°50'917.8
2019-Jul-17 15:00N 50°60' E 001°36'1020.2
2019-Jul-17 14:31N 51°06' E 001°24'3 5.3
2019-Jul-17 14:00N 51°07' E 001°20'0 0.0
2019-Jul-17 13:30N 51°07' E 001°20'4 8.9
2019-Jul-17 13:01N 51°06' E 001°27'1020.4
2019-Jul-17 12:31N 51°00' E 001°40'714.6
2019-Jul-17 12:01N 50°58' E 001°51'0 0.1
2019-Jul-17 11:30N 50°58' E 001°51'1 1.8
2019-Jul-17 11:00N 50°58' E 001°50'815.7
2019-Jul-17 10:31N 50°60' E 001°38'918.1
2019-Jul-17 10:01N 51°05' E 001°26'4 4.3
2019-Jul-17 08:58N 51°07' E 001°20'3 5.8
2019-Jul-17 08:30N 51°07' E 001°24'917.3
2019-Jul-17 08:00N 51°02' E 001°35'917.7
2019-Jul-17 07:30N 50°58' E 001°48'2 3.6
2019-Jul-17 07:00N 50°58' E 001°51'0 0.0
2019-Jul-17 06:30N 50°58' E 001°51'3 6.5
2019-Jul-17 06:00N 50°58' E 001°46'815.2
2019-Jul-17 05:31N 50°59' E 001°34'815.7
2019-Jul-17 05:00N 51°05' E 001°25'4 8.3
2019-Jul-17 04:30N 51°07' E 001°20'0 0.2
2019-Jul-17 03:54N 51°07' E 001°20'614.4
2019-Jul-17 03:31N 51°07' E 001°29'815.3
2019-Jul-17 03:01N 51°02' E 001°39'714.8
2019-Jul-17 02:30N 50°58' E 001°49'1 2.5
2019-Jul-17 02:01N 50°58' E 001°51'0 0.0
2019-Jul-17 01:30N 50°58' E 001°51'1 1.8
2019-Jul-17 01:00N 50°58' E 001°50'917.1
2019-Jul-17 00:30N 50°59' E 001°36'815.9
2019-Jul-17 00:01N 51°04' E 001°26'5 7.8
2019-Jul-16 23:22N 51°07' E 001°20'0 0.0
2019-Jul-16 22:58N 51°07' E 001°20'3 7.2
2019-Jul-16 22:31N 51°06' E 001°25'918.0
2019-Jul-16 22:00N 51°01' E 001°37'816.1
2019-Jul-16 21:30N 50°58' E 001°49'1 3.0
2019-Jul-16 21:01N 50°58' E 001°51'0 0.0
2019-Jul-16 20:30N 50°58' E 001°51'612.6
2019-Jul-16 20:00N 50°58' E 001°41'815.7
2019-Jul-16 19:30N 51°02' E 001°30'816.3
2019-Jul-16 19:00N 51°07' E 001°21'0 0.3
2019-Jul-16 18:08N 51°07' E 001°20'0 1.0
2019-Jul-16 17:59N 51°07' E 001°20'715.5
2019-Jul-16 17:31N 51°05' E 001°31'917.9
2019-Jul-16 17:00N 50°59' E 001°42'611.6
2019-Jul-16 16:31N 50°58' E 001°51'0 0.0
2019-Jul-16 16:00N 50°58' E 001°51'1 1.0
2019-Jul-16 15:30N 50°58' E 001°50'815.9
2019-Jul-16 15:00N 50°60' E 001°38'918.6
2019-Jul-16 14:30N 51°05' E 001°26'3 2.2
2019-Jul-16 13:06N 51°07' E 001°22'218.5
2019-Jul-16 13:00N 51°07' E 001°25'1020.4
2019-Jul-16 12:30N 51°01' E 001°38'816.7
2019-Jul-16 12:00N 50°58' E 001°51'0 0.4
2019-Jul-16 11:30N 50°58' E 001°51'0 0.7
2019-Jul-16 11:01N 50°58' E 001°51'918.2
2019-Jul-16 10:30N 50°60' E 001°36'1019.9
2019-Jul-16 10:00N 51°06' E 001°24'3 1.9
2019-Jul-16 08:41N 51°07' E 001°20'214.8
2019-Jul-16 08:30N 51°07' E 001°24'917.5
2019-Jul-16 08:00N 51°02' E 001°36'917.2
2019-Jul-16 07:30N 50°58' E 001°48'2 3.9
2019-Jul-16 07:00N 50°58' E 001°51'0 0.0
2019-Jul-16 06:30N 50°58' E 001°51'4 7.6
2019-Jul-16 06:01N 50°58' E 001°45'714.6
2019-Jul-16 05:30N 51°01' E 001°35'815.5
2019-Jul-16 05:00N 51°05' E 001°25'3 3.0
2019-Jul-16 03:51N 51°07' E 001°20'412.1
2019-Jul-16 03:30N 51°06' E 001°27'817.0
2019-Jul-16 03:01N 51°01' E 001°38'815.4
2019-Jul-16 02:30N 50°58' E 001°49'1 2.9
2019-Jul-16 02:00N 50°58' E 001°51'0 0.0
2019-Jul-16 01:30N 50°58' E 001°51'1 2.3
2019-Jul-16 01:00N 50°58' E 001°49'815.4
2019-Jul-16 00:30N 50°60' E 001°37'815.8
2019-Jul-16 00:00N 51°04' E 001°27'5 4.4
2019-Jul-15 22:48N 51°07' E 001°20'310.1
2019-Jul-15 22:31N 51°07' E 001°25'917.5
2019-Jul-15 22:00N 51°02' E 001°37'815.9
2019-Jul-15 21:30N 50°58' E 001°48'2 4.4
2019-Jul-15 21:00N 50°58' E 001°51'0 0.0
2019-Jul-15 20:30N 50°58' E 001°51'3 6.9
2019-Jul-15 20:00N 50°58' E 001°46'1019.1
2019-Jul-15 19:31N 51°01' E 001°32'918.5
2019-Jul-15 19:00N 51°07' E 001°20'0 0.1
2019-Jul-15 17:53N 51°07' E 001°20'616.7
2019-Jul-15 17:30N 51°05' E 001°30'1019.0
2019-Jul-15 17:00N 50°59' E 001°42'612.0
2019-Jul-15 16:30N 50°58' E 001°51'0 0.0
2019-Jul-15 16:00N 50°58' E 001°51'2 5.0
2019-Jul-15 15:30N 50°58' E 001°47'714.8
2019-Jul-15 15:00N 51°01' E 001°36'816.0
2019-Jul-15 14:30N 51°05' E 001°26'3 2.5
2019-Jul-15 13:08N 51°07' E 001°22'218.0
2019-Jul-15 13:00N 51°07' E 001°25'1020.2
2019-Jul-15 12:30N 51°01' E 001°37'917.5
2019-Jul-15 12:00N 50°58' E 001°51'0 0.7
2019-Jul-15 11:30N 50°58' E 001°51'0 0.2
2019-Jul-15 11:00N 50°58' E 001°51'715.0
2019-Jul-15 10:31N 50°59' E 001°39'917.7
2019-Jul-15 10:00N 51°02' E 001°26'6 4.7
2019-Jul-15 08:39N 51°07' E 001°20'2 9.6
2019-Jul-15 08:28N 51°07' E 001°23'818.3
2019-Jul-15 08:01N 51°02' E 001°34'918.6
2019-Jul-15 07:31N 50°58' E 001°47'3 5.1
2019-Jul-15 07:00N 50°58' E 001°51'0 0.0
2019-Jul-15 06:30N 50°58' E 001°51'4 7.2
2019-Jul-15 06:00N 50°58' E 001°45'815.5
2019-Jul-15 05:30N 51°01' E 001°34'815.3
2019-Jul-15 05:01N 51°05' E 001°24'2 1.7
2019-Jul-15 03:43N 51°07' E 001°22'418.8
2019-Jul-15 03:31N 51°06' E 001°28'917.8
2019-Jul-15 03:01N 51°01' E 001°40'714.9
2019-Jul-15 02:30N 50°58' E 001°51'0 0.7
2019-Jul-15 02:00N 50°58' E 001°51'0 0.0
2019-Jul-15 01:30N 50°58' E 001°51'3 6.7
2019-Jul-15 01:00N 50°58' E 001°46'816.4
2019-Jul-15 00:30N 51°00' E 001°34'816.3
2019-Jul-15 00:01N 51°06' E 001°24'3 2.0
2019-Jul-14 22:41N 51°07' E 001°21'214.2
2019-Jul-14 22:30N 51°07' E 001°24'815.7
2019-Jul-14 22:00N 51°03' E 001°35'816.7
2019-Jul-14 21:31N 50°58' E 001°46'3 6.6
2019-Jul-14 21:00N 50°58' E 001°51'0 0.0
2019-Jul-14 20:30N 50°58' E 001°51'4 7.3
2019-Jul-14 20:00N 50°58' E 001°45'816.2
2019-Jul-14 19:30N 51°01' E 001°33'816.4
2019-Jul-14 19:00N 51°06' E 001°23'2 2.1
2019-Jul-14 17:54N 51°07' E 001°20'716.6
2019-Jul-14 17:31N 51°06' E 001°31'1020.6
2019-Jul-14 17:01N 50°59' E 001°43'510.8
2019-Jul-14 16:30N 50°58' E 001°51'0 0.0
2019-Jul-14 16:00N 50°58' E 001°51'2 4.1
2019-Jul-14 15:30N 50°58' E 001°48'713.8
2019-Jul-14 15:00N 50°60' E 001°37'816.5
2019-Jul-14 14:30N 51°05' E 001°27'5 3.9
2019-Jul-14 13:17N 51°07' E 001°20'413.8
2019-Jul-14 13:00N 51°07' E 001°26'1020.6
2019-Jul-14 12:30N 51°00' E 001°39'815.7
2019-Jul-14 12:00N 50°58' E 001°51'0 0.3
2019-Jul-14 11:22N 50°58' E 001°52'0 0.0
2019-Jul-14 10:46N 50°58' E 001°52'0 0.0
2019-Jul-14 10:22N 50°58' E 001°52'0 0.0
2019-Jul-14 07:07N 50°58' E 001°52'0 0.0
2019-Jul-14 06:04N 50°58' E 001°52'0 0.0
2019-Jul-14 04:58N 50°58' E 001°52'0 0.0
2019-Jul-14 03:25N 50°58' E 001°52'0 0.0
2019-Jul-14 02:52N 50°58' E 001°52'0 0.0
2019-Jul-14 02:29N 50°58' E 001°52'0 0.0
2019-Jul-14 02:00N 50°58' E 001°52'0 0.0
2019-Jul-14 01:27N 50°58' E 001°52'1 1.7
2019-Jul-14 01:00N 50°58' E 001°51'917.4
2019-Jul-14 00:30N 50°59' E 001°37'1020.1
2019-Jul-14 00:01N 51°05' E 001°24'3 2.4
2019-Jul-13 22:41N 51°07' E 001°20'213.6
2019-Jul-13 22:31N 51°07' E 001°24'1020.5
2019-Jul-13 22:01N 51°02' E 001°38'917.2
2019-Jul-13 21:30N 50°58' E 001°51'0 0.5
2019-Jul-13 21:00N 50°58' E 001°51'0 0.0
2019-Jul-13 20:30N 50°58' E 001°51'3 5.9
2019-Jul-13 20:00N 50°58' E 001°46'1019.5
2019-Jul-13 19:30N 51°01' E 001°32'9 5.5
2019-Jul-13 17:49N 51°07' E 001°21'617.6
2019-Jul-13 17:30N 51°05' E 001°29'918.3
2019-Jul-13 17:00N 51°00' E 001°41'713.7
2019-Jul-13 16:30N 50°58' E 001°51'0 0.2
2019-Jul-13 16:00N 50°58' E 001°51'0 0.4
2019-Jul-13 15:30N 50°58' E 001°51'714.5
2019-Jul-13 15:01N 50°59' E 001°40'1019.4
2019-Jul-13 14:30N 51°05' E 001°27'5 5.5
2019-Jul-13 13:33N 51°07' E 001°20'0 0.4
2019-Jul-13 13:14N 51°07' E 001°20'314.7
2019-Jul-13 13:00N 51°06' E 001°25'1019.9
2019-Jul-13 12:30N 51°01' E 001°38'816.7
2019-Jul-13 12:01N 50°58' E 001°51'0 0.3
2019-Jul-13 11:31N 50°58' E 001°51'0 0.1
2019-Jul-13 11:00N 50°58' E 001°51'815.6
2019-Jul-13 10:30N 50°59' E 001°39'918.7
2019-Jul-13 10:00N 51°04' E 001°27'5 3.9
2019-Jul-13 08:42N 51°07' E 001°20'211.6
2019-Jul-13 08:30N 51°07' E 001°24'918.0
2019-Jul-13 08:00N 51°01' E 001°35'917.8
2019-Jul-13 07:30N 50°58' E 001°48'2 3.8
2019-Jul-13 07:01N 50°58' E 001°51'0 0.0
2019-Jul-13 06:31N 50°58' E 001°51'4 7.2
2019-Jul-13 06:00N 50°58' E 001°46'815.1
2019-Jul-13 05:30N 51°01' E 001°35'815.4
2019-Jul-13 05:01N 51°05' E 001°25'3 2.6
2019-Jul-13 03:47N 51°07' E 001°21'416.0
2019-Jul-13 03:30N 51°06' E 001°27'816.0
2019-Jul-13 03:01N 51°02' E 001°38'714.6
2019-Jul-13 02:31N 50°58' E 001°48'2 3.4
2019-Jul-13 02:00N 50°58' E 001°51'0 0.0
2019-Jul-13 01:30N 50°58' E 001°51'2 3.3
2019-Jul-13 01:00N 50°58' E 001°48'815.5
2019-Jul-13 00:30N 50°59' E 001°36'816.4
2019-Jul-13 00:00N 51°03' E 001°25'5 4.1
2019-Jul-12 22:47N 51°07' E 001°20'412.9
2019-Jul-12 22:31N 51°07' E 001°26'815.9
2019-Jul-12 22:01N 51°02' E 001°36'815.7
2019-Jul-12 21:31N 50°58' E 001°47'3 5.1
2019-Jul-12 21:00N 50°58' E 001°51'0 0.0
2019-Jul-12 20:30N 50°58' E 001°51'4 7.1
2019-Jul-12 20:00N 50°58' E 001°45'816.4
2019-Jul-12 19:30N 51°01' E 001°34'816.2
2019-Jul-12 19:00N 51°06' E 001°23'2 1.9
2019-Jul-12 17:52N 51°07' E 001°20'514.1
2019-Jul-12 17:30N 51°05' E 001°28'917.5
2019-Jul-12 17:00N 51°00' E 001°39'815.5
2019-Jul-12 16:31N 50°58' E 001°51'0 0.3
2019-Jul-12 16:00N 50°58' E 001°51'0 0.2
2019-Jul-12 15:30N 50°58' E 001°51'815.3
2019-Jul-12 15:00N 50°59' E 001°39'1020.0
2019-Jul-12 14:30N 51°05' E 001°26'4 5.9
2019-Jul-12 13:45N 51°07' E 001°20'0 0.0
2019-Jul-12 13:21N 51°07' E 001°20'410.6
2019-Jul-12 13:00N 51°06' E 001°26'918.6
2019-Jul-12 12:30N 51°01' E 001°38'917.5
2019-Jul-12 12:00N 50°58' E 001°51'0 0.4
2019-Jul-12 11:30N 50°58' E 001°51'0 0.8
2019-Jul-12 11:01N 50°58' E 001°51'714.7
2019-Jul-12 10:30N 50°59' E 001°39'919.0
2019-Jul-12 10:01N 51°05' E 001°27'5 3.5
2019-Jul-12 08:36N 51°07' E 001°20'1 9.0
2019-Jul-12 08:28N 51°07' E 001°22'919.4
2019-Jul-12 08:00N 51°02' E 001°34'918.6
2019-Jul-12 07:30N 50°58' E 001°47'2 4.9
2019-Jul-12 07:00N 50°58' E 001°51'0 0.0
2019-Jul-12 06:30N 50°58' E 001°51'1 2.0
2019-Jul-12 06:00N 50°58' E 001°49'917.9
2019-Jul-12 05:30N 50°60' E 001°35'918.0
2019-Jul-12 05:00N 51°05' E 001°24'3 3.8
2019-Jul-12 04:09N 51°07' E 001°20'0 0.4
2019-Jul-12 03:57N 51°07' E 001°20'511.4
2019-Jul-12 03:31N 51°05' E 001°28'816.9
2019-Jul-12 03:00N 51°01' E 001°39'8 8.3
2019-Jul-12 02:00N 50°58' E 001°51'0 0.0
2019-Jul-12 01:30N 50°58' E 001°51'3 6.2
2019-Jul-12 01:01N 50°58' E 001°46'815.1
2019-Jul-12 00:30N 50°58' E 001°34'815.8
2019-Jul-12 00:00N 51°03' E 001°25'5 3.7
2019-Jul-11 22:36N 51°07' E 001°20'114.1
2019-Jul-11 22:30N 51°07' E 001°23'917.1
2019-Jul-11 22:00N 51°03' E 001°35'917.5
2019-Jul-11 21:30N 50°58' E 001°46'3 6.7
2019-Jul-11 21:00N 50°58' E 001°51'0 0.0
2019-Jul-11 20:30N 50°58' E 001°51'612.7
2019-Jul-11 20:01N 50°58' E 001°41'1019.2
2019-Jul-11 19:31N 51°04' E 001°29'6 6.1
2019-Jul-11 18:27N 51°07' E 001°20'1 2.8
2019-Jul-11 18:00N 51°07' E 001°22'918.0
2019-Jul-11 17:31N 51°03' E 001°35'917.8
2019-Jul-11 17:00N 50°58' E 001°46'3 6.4
2019-Jul-11 16:31N 50°58' E 001°51'0 0.0
2019-Jul-11 16:00N 50°58' E 001°51'4 7.3
2019-Jul-11 15:30N 50°58' E 001°45'918.0
2019-Jul-11 15:00N 51°01' E 001°32'917.8
2019-Jul-11 14:29N 51°07' E 001°21'0 0.8
2019-Jul-11 13:51N 51°07' E 001°20'0 0.0
2019-Jul-11 13:28N 51°07' E 001°20'510.1
2019-Jul-11 13:01N 51°06' E 001°27'917.4
2019-Jul-11 12:31N 51°00' E 001°38'816.8
2019-Jul-11 12:00N 50°58' E 001°51'0 0.9
2019-Jul-11 11:30N 50°58' E 001°51'0 0.0
2019-Jul-11 11:00N 50°58' E 001°51'4 8.2
2019-Jul-11 10:31N 50°58' E 001°45'1019.9
2019-Jul-11 10:01N 51°03' E 001°31'8 5.9
2019-Jul-11 08:38N 51°07' E 001°20'1 9.5
2019-Jul-11 08:30N 51°07' E 001°22'918.3
2019-Jul-11 08:00N 51°03' E 001°35'918.2
2019-Jul-11 07:30N 50°58' E 001°47'3 5.3
2019-Jul-11 07:01N 50°58' E 001°51'0 0.0
2019-Jul-11 06:31N 50°58' E 001°51'3 6.0
2019-Jul-11 06:00N 50°58' E 001°46'917.5
2019-Jul-11 05:30N 51°01' E 001°33'917.5
2019-Jul-11 05:00N 51°06' E 001°22'2 1.3
2019-Jul-11 03:48N 51°07' E 001°20'515.3
2019-Jul-11 03:31N 51°06' E 001°28'917.8
2019-Jul-11 03:01N 51°01' E 001°39'815.9
2019-Jul-11 02:30N 50°58' E 001°51'0 0.5
2019-Jul-11 02:00N 50°58' E 001°51'0 0.0
2019-Jul-11 01:30N 50°58' E 001°51'2 5.0
2019-Jul-11 01:01N 50°58' E 001°47'815.5
2019-Jul-11 00:31N 50°59' E 001°35'816.8
2019-Jul-11 00:01N 51°06' E 001°26'4 5.6
2019-Jul-10 23:15N 51°07' E 001°20'0 0.0
2019-Jul-10 23:00N 51°07' E 001°20'4 7.2
2019-Jul-10 22:31N 51°07' E 001°26'816.4
2019-Jul-10 22:00N 51°02' E 001°37'815.4
2019-Jul-10 21:30N 50°58' E 001°47'3 5.0
2019-Jul-10 21:00N 50°58' E 001°51'0 0.0
2019-Jul-10 20:30N 50°58' E 001°51'714.0
2019-Jul-10 20:01N 50°59' E 001°40'1020.6
2019-Jul-10 19:30N 51°05' E 001°27'5 3.6
2019-Jul-10 18:12N 51°07' E 001°20'2 8.7
2019-Jul-10 18:00N 51°07' E 001°23'816.5
2019-Jul-10 17:31N 51°03' E 001°34'917.5
2019-Jul-10 17:01N 50°58' E 001°45'4 7.3
2019-Jul-10 16:30N 50°58' E 001°51'0 0.0
2019-Jul-10 16:00N 50°58' E 001°51'1 2.1
2019-Jul-10 15:31N 50°58' E 001°50'917.4
2019-Jul-10 15:00N 50°59' E 001°36'1019.5
2019-Jul-10 14:30N 51°06' E 001°25'3 5.2
2019-Jul-10 13:51N 51°07' E 001°20'0 0.0
2019-Jul-10 13:30N 51°07' E 001°20'4 8.0
2019-Jul-10 13:01N 51°07' E 001°26'  

Dump ship's entire track history